Time;durP1;ratioP1;P1;durP2;ratioP2;P2;SDS_P1;SDS_P2;PMS_P1;PMS_P2;Temp;Humidity;BMP_temperature;BMP_pressure;BME280_temperature;BME280_humidity;BME280_pressure;Samples;Min_cycle;Max_cycle;Signal;HPM_P1;HPM_P2
2021/12/20 05:00:30;;;;;;;45.63;23.53;;;5.10;99.90;;;;;;5921851;23;20520;-69
2021/12/20 05:02:57;;;;;;;45.60;25.40;;;5.20;99.90;;;;;;4980294;28;20446;-69
2021/12/20 05:05:25;;;;;;;43.93;23.57;;;5.20;99.90;;;;;;4980139;28;20980;-70
2021/12/20 05:07:53;;;;;;;40.43;24.30;;;5.20;99.90;;;;;;4980115;28;20450;-67
2021/12/20 05:10:28;;;;;;;44.33;24.70;;;5.20;99.90;;;;;;4980311;28;20462;-67
2021/12/20 05:12:57;;;;;;;46.47;25.87;;;5.20;99.90;;;;;;4979900;28;20439;-68
2021/12/20 05:15:25;;;;;;;47.20;24.90;;;5.20;99.90;;;;;;4980394;28;20459;-67
2021/12/20 05:17:53;;;;;;;43.20;24.67;;;5.20;99.90;;;;;;4979453;28;20957;-69
2021/12/20 05:20:20;;;;;;;44.67;25.20;;;5.10;99.90;;;;;;4979142;28;20459;-69
2021/12/20 05:22:48;;;;;;;41.10;24.63;;;5.20;99.90;;;;;;4980124;28;20446;-69
2021/12/20 05:25:15;;;;;;;41.30;24.50;;;5.10;99.90;;;;;;4980060;28;20461;-68
2021/12/20 05:27:42;;;;;;;42.27;26.50;;;5.20;99.90;;;;;;4979391;28;20847;-67
2021/12/20 05:30:10;;;;;;;41.13;24.10;;;5.20;99.90;;;;;;4979252;28;20502;-68
2021/12/20 05:32:38;;;;;;;42.63;24.50;;;5.10;99.90;;;;;;4978332;28;20459;-68
2021/12/20 05:35:08;;;;;;;42.63;25.67;;;5.20;99.90;;;;;;4978180;28;20455;-68
2021/12/20 05:37:35;;;;;;;42.33;23.77;;;5.20;99.90;;;;;;4977726;28;20919;-68
2021/12/20 05:40:02;;;;;;;45.60;26.60;;;5.20;99.90;;;;;;4978080;28;20467;-68
2021/12/20 05:42:29;;;;;;;47.20;25.40;;;5.20;99.90;;;;;;4978041;28;20478;-68
2021/12/20 05:44:56;;;;;;;42.20;24.53;;;5.20;99.90;;;;;;4978416;28;20459;-68
2021/12/20 05:47:23;;;;;;;40.07;25.67;;;5.30;99.90;;;;;;4978195;28;20457;-68
2021/12/20 05:49:50;;;;;;;45.03;27.90;;;5.30;99.90;;;;;;4978092;28;20479;-68
2021/12/20 05:52:18;;;;;;;45.63;25.93;;;5.30;99.90;;;;;;4977919;28;20545;-67
2021/12/20 05:54:45;;;;;;;41.03;23.80;;;5.30;99.90;;;;;;4979006;28;20463;-71
2021/12/20 05:57:12;;;;;;;44.93;24.00;;;5.30;99.90;;;;;;4977257;28;20469;-69
2021/12/20 05:59:39;;;;;;;43.20;26.27;;;5.30;99.90;;;;;;4977578;28;20456;-70
2021/12/20 06:02:06;;;;;;;38.70;23.23;;;5.30;99.90;;;;;;4978288;28;20483;-67
2021/12/20 06:04:33;;;;;;;46.60;24.47;;;5.30;99.90;;;;;;4978791;28;20943;-69
2021/12/20 06:07:00;;;;;;;49.27;26.07;;;5.40;99.90;;;;;;4979206;28;20839;-68
2021/12/20 06:09:28;;;;;;;44.40;26.10;;;5.40;99.90;;;;;;4978978;28;20482;-68
2021/12/20 06:11:59;;;;;;;45.77;25.10;;;5.40;99.90;;;;;;4978460;28;20554;-68
2021/12/20 06:14:26;;;;;;;40.50;22.97;;;5.40;99.90;;;;;;4978901;28;20439;-68
2021/12/20 06:16:57;;;;;;;46.83;26.00;;;5.40;99.90;;;;;;4978618;28;20444;-68
2021/12/20 06:19:25;;;;;;;46.40;24.87;;;5.30;99.90;;;;;;4978040;28;20494;-68
2021/12/20 06:21:52;;;;;;;44.30;25.63;;;5.20;99.90;;;;;;4977446;28;20479;-69
2021/12/20 06:24:19;;;;;;;46.00;26.03;;;5.20;99.90;;;;;;4977970;28;20529;-69
2021/12/20 06:26:47;;;;;;;40.70;23.33;;;5.20;99.90;;;;;;4977560;28;20462;-70
2021/12/20 06:29:15;;;;;;;38.37;24.33;;;5.20;99.90;;;;;;4977366;28;21001;-68
2021/12/20 06:31:41;;;;;;;40.23;24.17;;;5.30;99.90;;;;;;4977459;28;20475;-67
2021/12/20 06:34:08;;;;;;;41.93;25.27;;;5.30;99.90;;;;;;4977952;28;20455;-70
2021/12/20 06:36:36;;;;;;;44.03;23.90;;;5.30;99.90;;;;;;4977504;28;20823;-69
2021/12/20 06:39:03;;;;;;;38.70;23.67;;;5.30;99.90;;;;;;4977708;28;20458;-69
2021/12/20 06:41:30;;;;;;;38.43;21.90;;;5.30;99.90;;;;;;4977582;28;20843;-68
2021/12/20 06:44:01;;;;;;;38.93;21.67;;;5.30;99.90;;;;;;4977400;28;20982;-68
2021/12/20 06:46:28;;;;;;;43.37;22.10;;;5.20;99.90;;;;;;4977466;28;20915;-68
2021/12/20 06:48:56;;;;;;;38.93;23.03;;;5.20;99.90;;;;;;4977877;28;20505;-67
2021/12/20 06:51:23;;;;;;;45.03;23.20;;;5.20;99.90;;;;;;4977886;28;21005;-68
2021/12/20 06:53:49;;;;;;;41.80;24.17;;;5.20;99.90;;;;;;4977841;28;20527;-68
2021/12/20 06:56:16;;;;;;;37.57;21.17;;;5.20;99.90;;;;;;4977756;28;20517;-68
2021/12/20 06:58:43;;;;;;;33.97;19.93;;;5.20;99.90;;;;;;4977358;28;20458;-68
2021/12/20 07:01:11;;;;;;;36.97;21.60;;;5.30;99.90;;;;;;4977301;28;20811;-68
2021/12/20 07:03:38;;;;;;;41.27;22.50;;;5.20;99.90;;;;;;4978185;28;20456;-68
2021/12/20 07:06:04;;;;;;;37.40;21.57;;;5.20;99.90;;;;;;4977464;28;20455;-69
2021/12/20 07:08:31;;;;;;;34.80;19.23;;;5.00;99.90;;;;;;4976728;28;20942;-67
2021/12/20 07:10:58;;;;;;;37.37;20.40;;;5.00;99.90;;;;;;4978046;28;20478;-68
2021/12/20 07:13:25;;;;;;;36.63;20.57;;;5.10;99.90;;;;;;4977533;28;20454;-68
2021/12/20 07:15:51;;;;;;;38.60;22.00;;;5.10;99.90;;;;;;4978196;28;20813;-68
2021/12/20 07:18:19;;;;;;;37.73;21.30;;;5.10;99.90;;;;;;4977830;28;20531;-69
2021/12/20 07:20:46;;;;;;;35.17;21.27;;;5.10;99.90;;;;;;4977213;28;20875;-69
2021/12/20 07:23:13;;;;;;;36.00;21.70;;;5.10;99.90;;;;;;4977468;28;20459;-69
2021/12/20 07:25:40;;;;;;;35.03;21.43;;;5.10;99.90;;;;;;4976677;28;20483;-68
2021/12/20 07:28:07;;;;;;;36.50;20.70;;;5.10;99.90;;;;;;4976171;28;20439;-69
2021/12/20 07:30:34;;;;;;;37.23;23.47;;;5.10;99.90;;;;;;4976086;28;20487;-68
2021/12/20 07:33:01;;;;;;;35.00;20.47;;;5.10;99.90;;;;;;4977665;28;20459;-69
2021/12/20 07:35:29;;;;;;;40.50;21.70;;;5.10;99.90;;;;;;4977653;28;20483;-68
2021/12/20 07:37:58;;;;;;;39.90;21.17;;;5.10;99.90;;;;;;4977908;28;20521;-68
2021/12/20 07:40:25;;;;;;;33.73;21.00;;;5.20;99.90;;;;;;4977443;28;20451;-68
2021/12/20 07:42:52;;;;;;;36.43;22.03;;;5.20;99.90;;;;;;4977311;28;20463;-69
2021/12/20 07:45:19;;;;;;;34.30;20.90;;;5.20;99.90;;;;;;4976885;28;20812;-69
2021/12/20 07:47:46;;;;;;;32.57;18.60;;;5.20;99.90;;;;;;4977413;28;20447;-69
2021/12/20 07:50:13;;;;;;;32.87;19.97;;;5.30;99.90;;;;;;4977036;28;20839;-69
2021/12/20 07:52:42;;;;;;;33.63;20.20;;;5.30;99.90;;;;;;4979631;28;20482;-69
2021/12/20 07:55:09;;;;;;;33.97;20.10;;;5.40;99.90;;;;;;4976947;28;20455;-69
2021/12/20 07:57:37;;;;;;;32.23;20.33;;;5.40;99.90;;;;;;4977003;28;20459;-69
2021/12/20 08:00:05;;;;;;;35.47;20.40;;;5.40;99.90;;;;;;4976432;28;20456;-70
2021/12/20 08:02:32;;;;;;;31.77;20.47;;;5.40;99.90;;;;;;4977376;28;20491;-70
2021/12/20 08:04:59;;;;;;;34.60;20.80;;;5.40;99.90;;;;;;4976854;28;20974;-69
2021/12/20 08:07:25;;;;;;;36.47;21.80;;;5.40;99.90;;;;;;4976406;28;20470;-70
2021/12/20 08:09:54;;;;;;;40.13;22.63;;;5.40;99.90;;;;;;4979702;28;20994;-69
2021/12/20 08:12:23;;;;;;;34.80;21.73;;;5.40;99.90;;;;;;4984668;28;20974;-69
2021/12/20 08:14:50;;;;;;;39.37;23.30;;;5.40;99.90;;;;;;4985654;28;20506;-67
2021/12/20 08:17:18;;;;;;;36.70;22.03;;;5.40;99.90;;;;;;4984626;28;20530;-70
2021/12/20 08:19:49;;;;;;;37.10;22.97;;;5.40;99.90;;;;;;4985372;28;20455;-70
2021/12/20 08:22:16;;;;;;;36.93;22.03;;;5.40;99.90;;;;;;4982650;28;20973;-70
2021/12/20 08:24:47;;;;;;;37.40;24.83;;;5.50;99.90;;;;;;4982035;28;20513;-70
2021/12/20 08:27:16;;;;;;;32.60;21.07;;;5.60;99.90;;;;;;4984657;28;20442;-68
2021/12/20 08:29:44;;;;;;;34.03;21.63;;;5.60;99.90;;;;;;4984827;28;20474;-70
2021/12/20 08:32:19;;;;;;;32.03;19.97;;;5.70;99.90;;;;;;4982578;28;20903;-71
2021/12/20 08:34:46;;;;;;;29.83;19.60;;;5.70;99.90;;;;;;4981396;28;20450;-69
2021/12/20 08:37:14;;;;;;;33.70;22.70;;;5.70;99.90;;;;;;4984273;28;20443;-69
2021/12/20 08:39:44;;;;;;;33.13;20.63;;;5.70;99.90;;;;;;4983709;28;20460;-68
2021/12/20 08:42:11;;;;;;;31.70;20.80;;;5.80;99.90;;;;;;4983365;28;20503;-68
2021/12/20 08:44:40;;;;;;;30.20;19.70;;;5.80;99.90;;;;;;4982782;28;20459;-69
2021/12/20 08:47:08;;;;;;;30.97;21.17;;;5.80;99.90;;;;;;4982052;28;20486;-71
2021/12/20 08:49:36;;;;;;;34.23;21.30;;;5.80;99.90;;;;;;4980363;28;20537;-68
2021/12/20 08:52:05;;;;;;;27.90;20.30;;;5.80;99.90;;;;;;4980986;28;20510;-70
2021/12/20 08:54:32;;;;;;;33.33;22.17;;;5.80;99.90;;;;;;4982856;28;20954;-71
2021/12/20 08:56:59;;;;;;;35.20;21.80;;;5.80;99.90;;;;;;4983161;28;20502;-69
2021/12/20 08:59:27;;;;;;;32.67;21.83;;;5.90;99.90;;;;;;4984937;28;20503;-69
2021/12/20 09:01:57;;;;;;;35.80;23.53;;;5.80;99.90;;;;;;4984705;28;20487;-69
2021/12/20 09:04:24;;;;;;;35.73;22.30;;;5.80;99.90;;;;;;4983530;28;20451;-69
2021/12/20 09:06:52;;;;;;;33.60;22.03;;;5.80;99.90;;;;;;4980310;28;20463;-70
2021/12/20 09:09:19;;;;;;;36.33;22.83;;;5.80;99.90;;;;;;4980264;28;20475;-71
2021/12/20 09:11:46;;;;;;;35.57;22.30;;;5.90;99.90;;;;;;4976190;28;20479;-70
2021/12/20 09:14:13;;;;;;;38.17;24.40;;;5.90;99.90;;;;;;4976736;28;20532;-71
2021/12/20 09:16:40;;;;;;;38.00;23.80;;;5.90;99.90;;;;;;4975702;28;20455;-70
2021/12/20 09:19:08;;;;;;;37.97;22.50;;;6.00;99.90;;;;;;4975534;28;20951;-70
2021/12/20 09:21:35;;;;;;;38.00;24.17;;;6.00;99.90;;;;;;4977128;28;21105;-70
2021/12/20 09:24:04;;;;;;;33.90;22.93;;;6.10;99.90;;;;;;4980120;28;20455;-71
2021/12/20 09:26:31;;;;;;;42.37;22.40;;;6.10;99.90;;;;;;4976801;28;20459;-70
2021/12/20 09:28:58;;;;;;;34.77;23.30;;;6.10;99.90;;;;;;4977549;28;20459;-70
2021/12/20 09:31:25;;;;;;;37.63;23.07;;;6.10;99.90;;;;;;4976492;28;20489;-70
2021/12/20 09:33:51;;;;;;;36.10;23.10;;;6.20;99.90;;;;;;4979196;28;20951;-70
2021/12/20 09:36:25;;;;;;;41.23;23.97;;;6.20;99.90;;;;;;4978718;28;20436;-70
2021/12/20 09:38:54;;;;;;;32.33;23.30;;;6.30;99.90;;;;;;4979391;28;20758;-70
2021/12/20 09:41:59;;;;;;;34.37;23.07;;;6.40;99.90;;;;;;4981114;28;20475;-70
2021/12/20 09:44:16;;;;;;;35.60;22.67;;;6.40;99.90;;;;;;4982860;28;20475;-70
2021/12/20 09:46:42;;;;;;;37.03;23.43;;;6.40;99.90;;;;;;4983035;28;20506;-68
2021/12/20 09:49:10;;;;;;;35.63;23.03;;;6.50;99.90;;;;;;4984662;28;20451;-68
2021/12/20 09:51:38;;;;;;;37.17;24.07;;;6.50;99.90;;;;;;4980549;28;20486;-68
2021/12/20 09:54:06;;;;;;;34.27;23.77;;;6.40;99.90;;;;;;4980361;28;20459;-70
2021/12/20 09:56:34;;;;;;;38.67;26.27;;;6.40;99.90;;;;;;4979950;28;20459;-70
2021/12/20 09:59:02;;;;;;;32.57;23.10;;;6.40;99.90;;;;;;4982098;28;20482;-68
2021/12/20 10:01:29;;;;;;;38.97;24.73;;;6.60;99.90;;;;;;4982282;28;20982;-69
2021/12/20 10:03:56;;;;;;;36.40;23.20;;;6.70;99.90;;;;;;4980588;28;20458;-69
2021/12/20 10:06:24;;;;;;;34.10;23.20;;;6.80;99.90;;;;;;4979563;28;20455;-70
2021/12/20 10:08:55;;;;;;;40.20;23.13;;;6.90;99.90;;;;;;4979711;28;20959;-70
2021/12/20 10:11:24;;;;;;;37.27;24.20;;;6.90;99.90;;;;;;4981130;28;20491;-70
2021/12/20 10:14:01;;;;;;;39.93;24.40;;;6.80;99.90;;;;;;4978100;28;20458;-70
2021/12/20 10:16:28;;;;;;;39.07;24.87;;;6.90;99.90;;;;;;4977946;28;20807;-70
2021/12/20 10:18:55;;;;;;;35.77;22.27;;;6.70;99.90;;;;;;4977656;28;20498;-70
2021/12/20 10:21:36;;;;;;;37.90;24.20;;;6.70;99.90;;;;;;4977568;28;20471;-70
2021/12/20 10:24:05;;;;;;;38.97;23.33;;;6.70;99.90;;;;;;4978545;28;20439;-72
2021/12/20 10:26:39;;;;;;;37.97;25.03;;;6.70;99.90;;;;;;4978529;28;20463;-71
2021/12/20 10:29:18;;;;;;;33.90;23.03;;;6.60;99.90;;;;;;4979071;28;20439;-70
2021/12/20 10:31:45;;;;;;;40.37;23.67;;;6.70;99.90;;;;;;4978117;28;20848;-74
2021/12/20 10:34:13;;;;;;;38.70;24.27;;;6.90;99.90;;;;;;4980861;28;20463;-70
2021/12/20 10:36:51;;;;;;;38.43;24.27;;;7.10;99.90;;;;;;4979655;28;20856;-71
2021/12/20 10:39:33;;;;;;;35.43;21.40;;;7.10;99.90;;;;;;4980152;28;20431;-71
2021/12/20 10:42:20;;;;;;;25.80;18.80;;;7.30;99.90;;;;;;4984319;28;20506;-70
2021/12/20 10:45:07;;;;;;;20.80;15.27;;;7.30;99.90;;;;;;4982766;28;20443;-69
2021/12/20 10:47:34;;;;;;;22.87;14.80;;;7.50;99.90;;;;;;4976972;28;20911;-69
2021/12/20 10:50:20;;;;;;;14.23;10.87;;;8.10;99.90;;;;;;4980531;28;20483;-68
2021/12/20 10:52:47;;;;;;;11.43;9.20;;;8.20;99.90;;;;;;4980856;28;20443;-68
2021/12/20 10:55:36;;;;;;;14.30;11.20;;;8.10;99.90;;;;;;4980837;28;20458;-69
2021/12/20 10:58:19;;;;;;;12.60;10.10;;;8.10;99.90;;;;;;4978137;28;20490;-67
2021/12/20 11:00:46;;;;;;;15.10;11.23;;;8.20;99.90;;;;;;4978023;28;20993;-68
2021/12/20 11:03:25;;;;;;;15.00;12.10;;;8.20;99.90;;;;;;4978273;28;20457;-69
2021/12/20 11:11:22;;;;;;;15.23;10.90;;;7.70;99.90;;;;;;4976855;28;20534;-69
2021/12/20 11:13:49;;;;;;;17.90;12.00;;;7.70;99.90;;;;;;4976921;28;20451;-70
2021/12/20 11:16:31;;;;;;;16.80;11.13;;;7.70;99.90;;;;;;4976794;28;20459;-69
2021/12/20 11:19:20;;;;;;;20.47;13.23;;;7.70;99.90;;;;;;4978328;28;20461;-67
2021/12/20 11:22:05;;;;;;;17.47;13.40;;;7.60;99.90;;;;;;4976427;28;20986;-70
2021/12/20 11:24:35;;;;;;;18.37;11.10;;;7.60;99.90;;;;;;4975518;28;20452;-69
2021/12/20 11:27:06;;;;;;;20.03;11.57;;;7.70;99.90;;;;;;4976504;28;20459;-69
2021/12/20 11:29:33;;;;;;;14.87;11.27;;;7.50;99.90;;;;;;4976296;28;20446;-68
2021/12/20 11:32:00;;;;;;;17.10;11.40;;;7.70;99.90;;;;;;4976088;28;20505;-67
2021/12/20 11:34:28;;;;;;;16.60;11.53;;;7.80;99.90;;;;;;4976363;28;20455;-67
2021/12/20 11:36:56;;;;;;;21.77;13.03;;;7.90;99.90;;;;;;4976058;28;20458;-68
2021/12/20 11:39:23;;;;;;;22.00;14.00;;;8.00;99.90;;;;;;4976000;28;20456;-69
2021/12/20 11:41:49;;;;;;;21.73;13.13;;;7.90;99.90;;;;;;4976092;28;20839;-69
2021/12/20 11:44:20;;;;;;;19.27;13.10;;;7.80;99.90;;;;;;4976381;28;20946;-70
2021/12/20 11:47:03;;;;;;;15.43;11.50;;;7.70;99.90;;;;;;4976137;28;20482;-69
2021/12/20 11:49:31;;;;;;;13.17;10.57;;;7.60;99.90;;;;;;4976003;28;20451;-69
2021/12/20 11:52:08;;;;;;;19.30;11.93;;;7.60;99.90;;;;;;4975430;28;20490;-69
2021/12/20 11:54:39;;;;;;;17.67;11.80;;;7.50;99.90;;;;;;4975458;28;20795;-69
2021/12/20 11:57:07;;;;;;;17.63;11.67;;;7.60;99.90;;;;;;4976651;28;20439;-70
2021/12/20 11:59:54;;;;;;;19.23;13.40;;;7.50;99.90;;;;;;4975898;28;20459;-68
2021/12/20 12:02:27;;;;;;;18.07;11.77;;;7.30;99.90;;;;;;4975536;28;20490;-70
2021/12/20 12:05:00;;;;;;;18.87;11.30;;;7.30;99.90;;;;;;4976533;28;20435;-69
2021/12/20 12:07:29;;;;;;;18.90;13.43;;;7.70;99.90;;;;;;4977658;28;20455;-70
2021/12/20 12:10:01;;;;;;;22.57;12.50;;;8.00;99.90;;;;;;4976250;28;20455;-68
2021/12/20 12:12:29;;;;;;;16.33;12.60;;;8.10;99.90;;;;;;4976246;28;20475;-69
2021/12/20 12:15:08;;;;;;;20.20;12.70;;;8.20;99.90;;;;;;4976447;28;20466;-69
2021/12/20 12:17:53;;;;;;;18.70;11.30;;;8.20;99.90;;;;;;4976614;28;20805;-69
2021/12/20 12:20:40;;;;;;;16.07;10.83;;;8.30;99.90;;;;;;4975955;28;20451;-70
2021/12/20 12:23:12;;;;;;;13.00;9.87;;;8.50;99.90;;;;;;4976138;28;20903;-69
2021/12/20 12:25:43;;;;;;;12.83;10.67;;;8.70;99.90;;;;;;4975532;28;20460;-69
2021/12/20 12:28:10;;;;;;;13.57;10.00;;;8.60;99.90;;;;;;4975674;28;20445;-68
2021/12/20 12:30:41;;;;;;;15.90;10.67;;;8.40;99.90;;;;;;4976170;28;20885;-69
2021/12/20 12:33:21;;;;;;;16.57;10.20;;;8.50;99.90;;;;;;4977221;28;20444;-69
2021/12/20 12:35:51;;;;;;;16.27;10.30;;;8.40;99.90;;;;;;4975689;28;20516;-71
2021/12/20 12:38:19;;;;;;;13.83;9.53;;;8.30;99.90;;;;;;4975486;28;20463;-70
2021/12/20 12:40:50;;;;;;;16.93;9.77;;;8.10;99.90;;;;;;4976180;28;20471;-71
2021/12/20 12:43:21;;;;;;;14.30;9.53;;;8.00;99.90;;;;;;4975948;28;20530;-71
2021/12/20 12:45:50;;;;;;;13.33;9.60;;;8.00;99.90;;;;;;4975392;28;20539;-70
2021/12/20 12:48:34;;;;;;;13.60;9.80;;;8.10;99.90;;;;;;4974797;28;20969;-70
2021/12/20 12:51:08;;;;;;;15.43;11.03;;;8.10;99.90;;;;;;4974836;28;20486;-70
2021/12/20 12:53:39;;;;;;;16.67;9.80;;;8.20;99.90;;;;;;4975219;28;20459;-70
2021/12/20 12:56:31;;;;;;;17.33;11.80;;;7.90;99.90;;;;;;4975384;28;20562;-69
2021/12/20 12:59:24;;;;;;;15.40;9.67;;;7.80;99.90;;;;;;4975713;28;20822;-70
2021/12/20 13:01:56;;;;;;;13.23;9.73;;;7.60;99.90;;;;;;4975663;28;20537;-69
2021/12/20 13:04:43;;;;;;;13.33;9.80;;;7.70;99.90;;;;;;4975324;28;20450;-69
2021/12/20 13:07:10;;;;;;;14.20;9.27;;;7.50;99.90;;;;;;4978411;28;20450;-69
2021/12/20 13:09:43;;;;;;;13.20;8.73;;;7.70;99.90;;;;;;4979366;28;20467;-70
2021/12/20 13:12:13;;;;;;;21.33;9.60;;;7.80;99.90;;;;;;4978631;28;21008;-70
2021/12/20 13:14:51;;;;;;;12.90;8.03;;;8.00;99.90;;;;;;4978948;28;20443;-70
2021/12/20 13:17:31;;;;;;;12.80;9.30;;;8.00;99.90;;;;;;4979478;28;20445;-71
2021/12/20 13:20:11;;;;;;;13.73;8.30;;;8.10;99.90;;;;;;4979282;28;20466;-71
2021/12/20 13:22:38;;;;;;;12.57;7.53;;;8.20;99.90;;;;;;4979189;28;20991;-70
2021/12/20 13:25:05;;;;;;;12.30;8.23;;;8.50;99.90;;;;;;4979371;28;20510;-71
2021/12/20 13:27:32;;;;;;;20.30;7.17;;;8.50;99.90;;;;;;4979815;28;20821;-70
2021/12/20 13:29:59;;;;;;;10.43;6.30;;;8.60;99.90;;;;;;4979590;28;20596;-70
2021/12/20 13:32:26;;;;;;;13.33;7.97;;;8.60;99.90;;;;;;4979003;28;20488;-70
2021/12/20 13:34:56;;;;;;;8.83;7.10;;;8.50;99.90;;;;;;4978859;28;20459;-69
2021/12/20 13:37:23;;;;;;;14.63;8.90;;;8.30;99.90;;;;;;4979375;28;20459;-69
2021/12/20 13:39:53;;;;;;;13.27;6.90;;;8.10;99.90;;;;;;4978715;28;20461;-69
2021/12/20 13:42:20;;;;;;;12.73;8.17;;;7.80;99.90;;;;;;4978234;28;20471;-70
2021/12/20 13:44:47;;;;;;;12.33;8.27;;;7.70;99.90;;;;;;4978292;28;20450;-69
2021/12/20 13:47:18;;;;;;;10.57;6.73;;;7.50;99.90;;;;;;4978127;28;20463;-69
2021/12/20 13:49:45;;;;;;;14.23;6.70;;;7.40;99.90;;;;;;4977704;28;20444;-69
2021/12/20 13:52:13;;;;;;;13.77;6.90;;;7.30;99.90;;;;;;4978775;28;20495;-69
2021/12/20 13:54:42;;;;;;;9.33;5.57;;;7.20;99.90;;;;;;4977689;28;20947;-69
2021/12/20 13:57:14;;;;;;;9.80;5.93;;;7.10;99.90;;;;;;4977388;28;20826;-70
2021/12/20 13:59:47;;;;;;;7.50;5.70;;;7.10;99.90;;;;;;4978145;28;20446;-68
2021/12/20 14:02:16;;;;;;;9.23;4.90;;;7.00;99.90;;;;;;4978111;28;20494;-69
2021/12/20 14:04:45;;;;;;;10.20;5.70;;;7.00;99.90;;;;;;4977676;28;20467;-69
2021/12/20 14:07:38;;;;;;;11.77;5.40;;;6.90;99.90;;;;;;4977785;28;20459;-70
2021/12/20 14:10:08;;;;;;;8.00;4.60;;;6.90;99.90;;;;;;4974749;28;20455;-69
2021/12/20 14:12:40;;;;;;;10.50;5.13;;;6.80;99.90;;;;;;4977762;28;20482;-70
2021/12/20 14:15:11;;;;;;;13.60;5.93;;;6.80;99.90;;;;;;4977697;28;20443;-68
2021/12/20 14:18:00;;;;;;;10.80;5.40;;;6.80;99.90;;;;;;4976640;28;20984;-69
2021/12/20 14:20:44;;;;;;;11.17;6.20;;;7.00;99.90;;;;;;4977630;28;20443;-69
2021/12/20 14:23:25;;;;;;;12.53;6.67;;;7.10;99.90;;;;;;4977766;28;20439;-70
2021/12/20 14:26:01;;;;;;;10.77;5.67;;;7.10;99.90;;;;;;4978893;28;20439;-70
2021/12/20 14:28:30;;;;;;;8.63;5.47;;;7.10;99.90;;;;;;4978266;28;20435;-69
2021/12/20 14:31:00;;;;;;;13.07;5.20;;;7.10;99.90;;;;;;4977075;28;20482;-70
2021/12/20 14:33:29;;;;;;;9.90;6.40;;;7.00;99.90;;;;;;4977031;28;20494;-71
2021/12/20 14:36:02;;;;;;;10.83;6.40;;;6.90;99.90;;;;;;4978778;28;20443;-70
2021/12/20 14:38:35;;;;;;;8.03;5.40;;;6.80;99.90;;;;;;4980957;28;20443;-69
2021/12/20 14:41:10;;;;;;;8.60;5.60;;;6.70;99.90;;;;;;4979406;28;20478;-72
2021/12/20 14:43:37;;;;;;;8.80;6.30;;;6.60;99.90;;;;;;4979617;28;20929;-69
2021/12/20 14:46:16;;;;;;;13.43;6.30;;;6.50;99.90;;;;;;4977534;28;20443;-70
2021/12/20 14:48:46;;;;;;;12.63;6.37;;;6.50;99.90;;;;;;4978589;28;20440;-71
2021/12/20 14:51:19;;;;;;;7.90;5.90;;;6.30;99.90;;;;;;4977151;28;20934;-70
2021/12/20 14:53:48;;;;;;;11.00;5.40;;;6.20;99.90;;;;;;4978467;28;20457;-70
2021/12/20 14:56:15;;;;;;;14.13;5.93;;;6.10;99.90;;;;;;4977352;28;20463;-70
2021/12/20 14:58:43;;;;;;;10.63;5.97;;;6.00;99.90;;;;;;4977146;28;20478;-70
2021/12/20 15:01:10;;;;;;;9.70;6.20;;;5.90;99.90;;;;;;4976755;28;20515;-69
2021/12/20 15:03:42;;;;;;;8.20;5.40;;;5.80;99.90;;;;;;4977168;28;20815;-69
2021/12/20 15:06:10;;;;;;;10.27;5.50;;;5.70;99.90;;;;;;4977341;28;20450;-68
2021/12/20 15:08:37;;;;;;;15.57;5.83;;;5.60;99.90;;;;;;4977490;28;20458;-68
2021/12/20 15:11:06;;;;;;;11.30;5.10;;;5.50;99.90;;;;;;4977118;28;21001;-68
2021/12/20 15:13:33;;;;;;;11.03;5.20;;;5.40;99.90;;;;;;4977128;28;20955;-67
2021/12/20 15:15:59;;;;;;;18.87;6.40;;;5.30;99.90;;;;;;4977570;28;20444;-68
2021/12/20 15:18:27;;;;;;;11.90;5.73;;;5.30;99.90;;;;;;4977903;28;20459;-67
2021/12/20 15:20:54;;;;;;;7.40;5.40;;;5.20;99.90;;;;;;4976609;28;20974;-68
2021/12/20 15:23:21;;;;;;;11.67;5.63;;;5.10;99.90;;;;;;4977246;28;20457;-68
2021/12/20 15:25:49;;;;;;;8.23;5.27;;;5.00;99.90;;;;;;4977774;28;20459;-67
2021/12/20 15:28:17;;;;;;;11.60;6.10;;;4.90;99.90;;;;;;4979177;28;20957;-68
2021/12/20 15:30:44;;;;;;;7.87;4.97;;;4.90;99.90;;;;;;4979294;28;20479;-69
2021/12/20 15:33:11;;;;;;;7.80;5.27;;;4.80;99.90;;;;;;4983560;28;20487;-67
2021/12/20 15:35:39;;;;;;;8.73;5.17;;;4.70;99.90;;;;;;4986768;28;20459;-68
2021/12/20 15:38:06;;;;;;;11.17;5.03;;;4.60;99.90;;;;;;4985327;28;20463;-68
2021/12/20 15:40:32;;;;;;;11.40;5.20;;;4.60;99.90;;;;;;4978948;28;20486;-67
2021/12/20 15:43:01;;;;;;;8.03;4.40;;;4.50;99.90;;;;;;4978359;28;20969;-67
2021/12/20 15:45:31;;;;;;;10.50;4.40;;;4.50;99.90;;;;;;4977014;28;21002;-68
2021/12/20 15:47:58;;;;;;;8.10;3.90;;;4.40;99.90;;;;;;4976942;28;20466;-67
2021/12/20 15:50:25;;;;;;;7.60;4.40;;;4.40;99.90;;;;;;4977757;28;20462;-68
2021/12/20 15:52:53;;;;;;;10.33;4.63;;;4.40;99.90;;;;;;4979019;28;20463;-68
2021/12/20 15:55:20;;;;;;;7.00;4.27;;;4.30;99.90;;;;;;4978089;28;20482;-68
2021/12/20 15:57:47;;;;;;;7.30;5.17;;;4.30;99.90;;;;;;4989337;28;20451;-68
2021/12/20 16:00:16;;;;;;;15.13;5.90;;;4.20;99.90;;;;;;4990473;28;20627;-68
2021/12/20 16:02:44;;;;;;;9.90;5.13;;;4.20;99.90;;;;;;4990015;28;20435;-68
2021/12/20 16:05:11;;;;;;;7.90;5.20;;;4.10;99.90;;;;;;4988797;28;20526;-68
2021/12/20 16:07:38;;;;;;;8.77;6.20;;;4.10;99.90;;;;;;4978865;28;20458;-67
2021/12/20 16:10:06;;;;;;;14.60;7.50;;;4.00;99.90;;;;;;4976670;28;20456;-68
2021/12/20 16:12:33;;;;;;;15.00;8.77;;;4.00;99.90;;;;;;4976405;28;20479;-69
2021/12/20 16:14:59;;;;;;;10.93;8.33;;;4.00;99.90;;;;;;4975731;28;20459;-68
2021/12/20 16:17:26;;;;;;;15.30;6.20;;;3.90;99.90;;;;;;4976190;28;20825;-67
2021/12/20 16:19:54;;;;;;;11.67;5.90;;;3.90;99.90;;;;;;4975949;28;20962;-68
2021/12/20 16:22:21;;;;;;;16.23;6.53;;;3.90;99.90;;;;;;4976246;28;20529;-68
2021/12/20 16:24:47;;;;;;;12.30;5.30;;;3.90;99.90;;;;;;4976261;28;20826;-69
2021/12/20 16:27:14;;;;;;;10.20;5.70;;;3.80;99.90;;;;;;4975979;28;20490;-66
2021/12/20 16:29:41;;;;;;;15.33;5.53;;;3.80;99.90;;;;;;4975687;28;20459;-68
2021/12/20 16:32:08;;;;;;;7.90;5.40;;;3.80;99.90;;;;;;4975575;28;20489;-67
2021/12/20 16:34:35;;;;;;;13.97;5.77;;;3.70;99.90;;;;;;4975770;28;20459;-68
2021/12/20 16:37:03;;;;;;;11.90;6.07;;;3.70;99.90;;;;;;4975373;28;20462;-67
2021/12/20 16:39:31;;;;;;;13.60;6.80;;;3.70;99.90;;;;;;4975378;28;20938;-67
2021/12/20 16:41:59;;;;;;;14.73;8.20;;;3.70;99.90;;;;;;4978357;28;20481;-67
2021/12/20 16:44:35;;;;;;;19.60;7.07;;;3.70;99.90;;;;;;4979788;28;20491;-67
2021/12/20 16:47:18;;;;;;;10.77;6.47;;;3.70;99.90;;;;;;4979464;28;20446;-67
2021/12/20 16:49:45;;;;;;;9.87;6.63;;;3.60;99.90;;;;;;4979240;28;20455;-67
2021/12/20 16:52:13;;;;;;;15.60;8.33;;;3.60;99.90;;;;;;4979302;28;20553;-67
2021/12/20 16:54:40;;;;;;;15.40;6.87;;;3.60;99.90;;;;;;4979431;28;20481;-67
2021/12/20 16:57:07;;;;;;;9.60;7.00;;;3.50;99.90;;;;;;4979494;28;20455;-68
2021/12/20 16:59:34;;;;;;;12.33;7.50;;;3.50;99.90;;;;;;4979620;28;20481;-67
2021/12/20 17:02:01;;;;;;;13.83;8.10;;;3.50;99.90;;;;;;4979353;28;20486;-67
2021/12/20 17:04:41;;;;;;;12.30;7.47;;;3.50;99.90;;;;;;4981121;28;20445;-67
2021/12/20 17:07:09;;;;;;;15.47;8.57;;;3.40;99.90;;;;;;4979031;28;20450;-67
2021/12/20 17:09:38;;;;;;;13.83;8.47;;;3.40;99.90;;;;;;4979148;28;20869;-67
2021/12/20 17:12:07;;;;;;;12.57;7.67;;;3.40;99.90;;;;;;4978875;28;20482;-67
2021/12/20 17:14:34;;;;;;;19.30;8.10;;;3.40;99.90;;;;;;4978871;28;20487;-67
2021/12/20 17:17:01;;;;;;;13.93;7.03;;;3.40;99.90;;;;;;4978425;28;20457;-67
2021/12/20 17:19:27;;;;;;;14.53;6.90;;;3.40;99.90;;;;;;4978655;28;20954;-67
2021/12/20 17:21:54;;;;;;;14.93;6.90;;;3.40;99.90;;;;;;4979119;28;20471;-67
2021/12/20 17:24:21;;;;;;;9.83;6.67;;;3.40;99.90;;;;;;4980282;28;20459;-67
2021/12/20 17:26:49;;;;;;;9.90;6.93;;;3.40;99.90;;;;;;4978562;28;20462;-67
2021/12/20 17:29:16;;;;;;;13.47;7.20;;;3.40;99.90;;;;;;4978865;28;20458;-67
2021/12/20 17:31:43;;;;;;;14.00;6.80;;;3.40;99.90;;;;;;4978273;28;20479;-67
2021/12/20 17:34:09;;;;;;;14.87;6.87;;;3.40;99.90;;;;;;4978649;28;20454;-67
2021/12/20 17:36:36;;;;;;;10.60;6.60;;;3.30;99.90;;;;;;4978016;28;20454;-67
2021/12/20 17:39:04;;;;;;;12.30;6.87;;;3.30;99.90;;;;;;4978448;28;20506;-67
2021/12/20 17:41:31;;;;;;;13.73;6.10;;;3.30;99.90;;;;;;4978885;28;20481;-70
2021/12/20 17:43:59;;;;;;;17.10;7.50;;;3.30;99.90;;;;;;4978871;28;20843;-68
2021/12/20 17:46:26;;;;;;;23.13;8.83;;;3.30;99.90;;;;;;4980765;28;20459;-66
2021/12/20 17:48:53;;;;;;;16.13;8.73;;;3.20;99.90;;;;;;4978466;28;20455;-67
2021/12/20 17:51:20;;;;;;;17.90;9.07;;;3.20;99.90;;;;;;4978401;28;20517;-66
2021/12/20 17:53:47;;;;;;;13.23;8.13;;;3.20;99.90;;;;;;4977981;28;20479;-67
2021/12/20 17:56:14;;;;;;;12.50;7.53;;;3.20;99.90;;;;;;4980206;28;20459;-67
2021/12/20 17:58:42;;;;;;;21.73;9.43;;;3.20;99.90;;;;;;4979394;28;20489;-68
2021/12/20 18:01:10;;;;;;;15.90;8.00;;;3.20;99.90;;;;;;4979594;28;20887;-68